Time;durP1;ratioP1;P1;durP2;ratioP2;P2;SDS_P1;SDS_P2;PMS_P1;PMS_P2;Temp;Humidity;BMP_temperature;BMP_pressure;BME280_temperature;BME280_humidity;BME280_pressure;Samples;Min_cycle;Max_cycle;Signal;HPM_P1;HPM_P2
2023/12/10 00:00:10;;;;;;;;;;;;;;;0.49;90.26;99839.77;104919;1288;71173;-57
2023/12/10 00:02:56;;;;;;;;;;;;;;;0.47;90.17;99845.34;104947;1292;59169;-56
2023/12/10 00:05:42;;;;;;;;;;;;;;;0.45;90.16;99845.16;104947;1289;61452;-57
2023/12/10 00:08:28;;;;;;;;;;;;;;;0.44;90.17;99844.28;104929;1288;74744;-57
2023/12/10 00:11:14;;;;;;;;;;;;;;;0.45;90.27;99832.44;104965;1288;70814;-57
2023/12/10 00:14:01;;;;;;;;;;;;;;;0.47;90.21;99827.89;104962;1292;71553;-57
2023/12/10 00:16:47;;;;;;;;;;;;;;;0.46;90.12;99822.11;104913;1288;61211;-57
2023/12/10 00:19:34;;;;;;;;;;;;;;;0.45;90.12;99830.58;104920;1288;61708;-56
2023/12/10 00:22:20;;;;;;;;;;;;;;;0.45;90.10;99829.39;104929;1288;76011;-57
2023/12/10 00:25:06;;;;;;;;;;;;;;;0.45;90.10;99835.15;104937;1288;69304;-56
2023/12/10 00:27:52;;;;;;;;;;;;;;;0.44;90.05;99831.08;104840;1292;71225;-56
2023/12/10 00:30:41;;;;;;;;;;;;;;;0.43;90.06;99826.64;104922;1288;61288;-56
2023/12/10 00:33:31;;;;;;;;;;;;;;;0.41;90.09;99823.08;104890;1292;61810;-57
2023/12/10 00:36:18;;;;;;;;;;;;;;;0.43;90.06;99825.45;104988;1289;73314;-57
2023/12/10 00:39:05;;;;;;;;;;;;;;;0.42;90.05;99819.34;105044;1288;67251;-56
2023/12/10 00:41:51;;;;;;;;;;;;;;;0.41;90.03;99820.34;104896;1290;71964;-58
2023/12/10 00:44:37;;;;;;;;;;;;;;;0.37;89.91;99819.63;104940;1288;61167;-57
2023/12/10 00:47:23;;;;;;;;;;;;;;;0.34;89.98;99821.95;104941;1288;60977;-57
2023/12/10 00:50:09;;;;;;;;;;;;;;;0.33;89.94;99817.37;104919;1288;73329;-57
2023/12/10 00:52:55;;;;;;;;;;;;;;;0.31;89.93;99819.89;104907;1290;67236;-57
2023/12/10 00:55:42;;;;;;;;;;;;;;;0.28;89.94;99813.25;104924;1289;71268;-57
2023/12/10 00:58:28;;;;;;;;;;;;;;;0.26;89.85;99811.19;104913;1288;61291;-57
2023/12/10 01:01:14;;;;;;;;;;;;;;;0.26;89.91;99812.87;104935;1288;61245;-58
2023/12/10 01:04:01;;;;;;;;;;;;;;;0.23;89.88;99810.47;104909;1288;76065;-58
2023/12/10 01:06:47;;;;;;;;;;;;;;;0.22;89.86;99806.89;104944;1288;70044;-58
2023/12/10 01:09:36;;;;;;;;;;;;;;;0.21;89.91;99805.69;104920;1288;75441;-56
2023/12/10 01:12:22;;;;;;;;;;;;;;;0.21;89.91;99797.89;104880;1289;61250;-56
2023/12/10 01:15:08;;;;;;;;;;;;;;;0.23;89.86;99794.88;104915;1293;61148;-56
2023/12/10 01:18:01;;;;;;;;;;;;;;;0.23;89.87;99781.48;104907;1290;75261;-57
2023/12/10 01:20:47;;;;;;;;;;;;;;;0.22;89.86;99789.43;104957;1288;67234;-57
2023/12/10 01:23:33;;;;;;;;;;;;;;;0.20;89.82;99785.85;104948;1288;71338;-57
2023/12/10 01:26:20;;;;;;;;;;;;;;;0.20;89.88;99780.26;104889;1293;60008;-57
2023/12/10 01:29:06;;;;;;;;;;;;;;;0.19;89.75;99779.05;104932;1290;61176;-57
2023/12/10 01:31:52;;;;;;;;;;;;;;;0.19;89.88;99774.33;104903;1289;73266;-55
2023/12/10 01:34:41;;;;;;;;;;;;;;;0.20;89.87;99779.92;104930;1292;66314;-57
2023/12/10 01:37:27;;;;;;;;;;;;;;;0.19;89.84;99785.84;104960;1288;72087;-58
2023/12/10 01:40:13;;;;;;;;;;;;;;;0.17;89.78;99788.19;104923;1290;61697;-58
2023/12/10 01:43:04;;;;;;;;;;;;;;;0.17;89.80;99796.48;104870;1287;61141;-55
2023/12/10 01:45:53;;;;;;;;;;;;;;;0.15;89.81;99797.64;104888;1288;73301;-57
2023/12/10 01:48:41;;;;;;;;;;;;;;;0.14;89.71;99794.23;104910;1288;67383;-60
2023/12/10 01:51:27;;;;;;;;;;;;;;;0.14;89.82;99792.38;104863;1288;74447;-59
2023/12/10 01:54:20;;;;;;;;;;;;;;;0.14;89.82;99791.19;104875;1288;61263;-58
2023/12/10 01:57:07;;;;;;;;;;;;;;;0.13;89.85;99791.52;104952;1288;61127;-57
2023/12/10 01:59:54;;;;;;;;;;;;;;;0.12;89.76;99801.84;104876;1288;73210;-58
2023/12/10 02:02:41;;;;;;;;;;;;;;;0.11;89.81;99796.58;104913;1288;69959;-57
2023/12/10 02:05:28;;;;;;;;;;;;;;;0.11;89.81;99793.02;104896;1289;73300;-57
2023/12/10 02:08:14;;;;;;;;;;;;;;;0.11;89.79;99791.33;104902;1288;61211;-57
2023/12/10 02:11:00;;;;;;;;;;;;;;;0.11;89.79;99783.69;104960;1292;61299;-57
2023/12/10 02:13:47;;;;;;;;;;;;;;;0.10;89.73;99780.64;104879;1289;73394;-58
2023/12/10 02:16:33;;;;;;;;;;;;;;;0.07;89.69;99786.02;105021;1291;67264;-58
2023/12/10 02:19:19;;;;;;;;;;;;;;;0.05;89.71;99787.35;104962;1288;74109;-57
2023/12/10 02:22:05;;;;;;;;;;;;;;;0.04;89.70;99781.91;104899;1288;60710;-58
2023/12/10 02:24:52;;;;;;;;;;;;;;;0.03;89.65;99771.23;104946;1288;61253;-55
2023/12/10 02:27:38;;;;;;;;;;;;;;;0.00;89.62;99765.11;104957;1288;74932;-57
2023/12/10 02:30:25;;;;;;;;;;;;;;;-0.03;89.67;99759.17;104998;1288;67345;-57
2023/12/10 02:33:11;;;;;;;;;;;;;;;-0.05;89.65;99763.04;104884;1289;72122;-57
2023/12/10 02:35:57;;;;;;;;;;;;;;;-0.08;89.57;99762.65;104990;1288;61053;-57
2023/12/10 02:38:44;;;;;;;;;;;;;;;-0.11;89.57;99757.70;104890;1291;59293;-57
2023/12/10 02:41:30;;;;;;;;;;;;;;;-0.12;89.62;99761.93;104905;1288;73193;-57
2023/12/10 02:44:16;;;;;;;;;;;;;;;-0.14;89.61;99761.55;104920;1290;67311;-55
2023/12/10 02:47:03;;;;;;;;;;;;;;;-0.16;89.59;99767.11;104893;1288;71236;-57
2023/12/10 02:49:49;;;;;;;;;;;;;;;-0.18;89.58;99767.59;104925;1289;61521;-57
2023/12/10 02:52:38;;;;;;;;;;;;;;;-0.18;89.65;99769.29;104935;1288;62803;-57
2023/12/10 02:55:25;;;;;;;;;;;;;;;-0.19;89.56;99767.41;104951;1288;72173;-58
2023/12/10 02:58:11;;;;;;;;;;;;;;;-0.19;89.63;99764.52;104971;1288;67937;-56
2023/12/10 03:00:59;;;;;;;;;;;;;;;-0.20;89.60;99757.58;104947;1288;70461;-57
2023/12/10 03:03:45;;;;;;;;;;;;;;;-0.20;89.64;99750.46;104901;1289;61135;-57
2023/12/10 03:06:31;;;;;;;;;;;;;;;-0.20;89.62;99756.39;104907;1288;63940;-57
2023/12/10 03:09:17;;;;;;;;;;;;;;;-0.20;89.58;99762.48;104933;1291;76036;-58
2023/12/10 03:12:04;;;;;;;;;;;;;;;-0.20;89.57;99762.15;104966;1288;70060;-58
2023/12/10 03:14:50;;;;;;;;;;;;;;;-0.20;89.67;99755.04;104933;1288;71224;-58
2023/12/10 03:17:36;;;;;;;;;;;;;;;-0.20;89.62;99754.02;104887;1288;61144;-57
2023/12/10 03:20:23;;;;;;;;;;;;;;;-0.20;89.58;99750.11;104941;1288;61182;-58
2023/12/10 03:23:09;;;;;;;;;;;;;;;-0.21;89.75;99752.14;105017;1288;73155;-58
2023/12/10 03:25:55;;;;;;;;;;;;;;;-0.21;89.61;99749.77;104881;1289;68097;-57
2023/12/10 03:28:41;;;;;;;;;;;;;;;-0.20;89.60;99749.27;100858;1288;5003589;-56
2023/12/10 03:31:27;;;;;;;;;;;;;;;-0.18;89.56;99746.77;104964;1288;61116;-57
2023/12/10 03:34:13;;;;;;;;;;;;;;;-0.17;89.60;99741.52;104979;1288;74011;-57
2023/12/10 03:37:00;;;;;;;;;;;;;;;-0.15;89.59;99740.52;104920;1291;67855;-57
2023/12/10 03:39:46;;;;;;;;;;;;;;;-0.13;89.57;99739.20;104904;1288;71269;-57
2023/12/10 03:42:32;;;;;;;;;;;;;;;-0.13;89.63;99734.46;104931;1288;61179;-57
2023/12/10 03:45:18;;;;;;;;;;;;;;;-0.11;89.61;99735.84;104921;1288;61290;-58
2023/12/10 03:48:05;;;;;;;;;;;;;;;-0.11;89.60;99741.10;104976;1288;73246;-57
2023/12/10 03:50:51;;;;;;;;;;;;;;;-0.10;89.56;99737.05;104883;1288;67133;-58
2023/12/10 03:53:37;;;;;;;;;;;;;;;-0.09;89.58;99729.77;104843;1289;72155;-58
2023/12/10 03:56:23;;;;;;;;;;;;;;;-0.08;89.62;99731.31;104899;1288;60134;-58
2023/12/10 03:59:10;;;;;;;;;;;;;;;-0.07;89.59;99737.94;104970;1288;61196;-56
2023/12/10 04:01:56;;;;;;;;;;;;;;;-0.07;89.60;99736.23;104828;1288;73187;-58
2023/12/10 04:04:42;;;;;;;;;;;;;;;-0.06;89.56;99741.33;104953;1288;67268;-58
2023/12/10 04:07:28;;;;;;;;;;;;;;;-0.05;89.55;99737.95;104925;1288;71398;-56
2023/12/10 04:10:14;;;;;;;;;;;;;;;-0.05;89.57;99735.77;104951;1288;61526;-58
2023/12/10 04:13:00;;;;;;;;;;;;;;;-0.05;89.52;99735.58;104935;1288;61875;-57
2023/12/10 04:15:46;;;;;;;;;;;;;;;-0.06;89.56;99735.58;104908;1290;74076;-57
2023/12/10 04:18:33;;;;;;;;;;;;;;;-0.05;89.56;99737.27;104909;1288;70047;-58
2023/12/10 04:21:20;;;;;;;;;;;;;;;-0.04;89.53;99731.03;104940;1292;71314;-57
2023/12/10 04:24:06;;;;;;;;;;;;;;;-0.03;89.47;99726.98;105465;1289;59229;-58
2023/12/10 04:26:52;;;;;;;;;;;;;;;-0.03;89.50;99734.42;104895;1292;61207;-58
2023/12/10 04:29:38;;;;;;;;;;;;;;;-0.03;89.49;99736.97;104892;1290;73174;-58
2023/12/10 04:32:24;;;;;;;;;;;;;;;-0.03;89.51;99736.12;104949;1287;69941;-57
2023/12/10 04:35:10;;;;;;;;;;;;;;;-0.03;89.53;99737.30;104885;1288;74003;-57
2023/12/10 04:37:56;;;;;;;;;;;;;;;-0.02;89.52;99747.65;104915;1288;60166;-58
2023/12/10 04:40:43;;;;;;;;;;;;;;;-0.02;89.50;99744.94;104947;1288;61534;-57
2023/12/10 04:43:29;;;;;;;;;;;;;;;-0.02;89.53;99744.44;104970;1288;73334;-55
2023/12/10 04:46:18;;;;;;;;;;;;;;;-0.00;89.53;99751.06;104952;1288;67258;-58
2023/12/10 04:49:04;;;;;;;;;;;;;;;-0.02;89.51;99761.89;104929;1288;75329;-57
2023/12/10 04:51:50;;;;;;;;;;;;;;;-0.01;89.53;99763.59;104965;1288;61121;-56
2023/12/10 04:54:36;;;;;;;;;;;;;;;-0.02;89.46;99760.54;104947;1290;61130;-57
2023/12/10 04:57:22;;;;;;;;;;;;;;;-0.01;89.49;99753.60;104947;1288;73259;-57
2023/12/10 05:00:09;;;;;;;;;;;;;;;-0.01;89.51;99755.45;104921;1288;67891;-57
2023/12/10 05:02:55;;;;;;;;;;;;;;;-0.01;89.53;99762.91;104944;1288;73505;-58
2023/12/10 05:05:42;;;;;;;;;;;;;;;-0.01;89.51;99766.64;104908;1289;61558;-57
2023/12/10 05:08:28;;;;;;;;;;;;;;;0.01;89.53;99768.83;104924;1288;60610;-57
2023/12/10 05:11:14;;;;;;;;;;;;;;;0.03;89.55;99769.87;105014;1288;75948;-57
2023/12/10 05:14:00;;;;;;;;;;;;;;;0.05;89.49;99774.81;104946;1288;66394;-57
2023/12/10 05:16:46;;;;;;;;;;;;;;;0.06;89.53;99778.38;104964;1288;73828;-57
2023/12/10 05:19:32;;;;;;;;;;;;;;;0.07;89.48;99776.20;104910;1288;61927;-57
2023/12/10 05:22:20;;;;;;;;;;;;;;;0.08;89.45;99773.67;104941;1288;60626;-58
2023/12/10 05:25:07;;;;;;;;;;;;;;;0.10;89.53;99777.59;104990;1287;73383;-55
2023/12/10 05:27:54;;;;;;;;;;;;;;;0.12;89.51;99773.38;104953;1289;70092;-57
2023/12/10 05:30:40;;;;;;;;;;;;;;;0.14;89.49;99783.06;106198;1288;71315;-58
2023/12/10 05:33:26;;;;;;;;;;;;;;;0.15;89.46;99793.91;106249;1288;58963;-58
2023/12/10 05:36:11;;;;;;;;;;;;;;;0.17;89.44;99795.81;106204;1287;59284;-58
2023/12/10 05:38:57;;;;;;;;;;;;;;;0.20;89.45;99788.56;105756;1289;74391;-58
2023/12/10 05:41:43;;;;;;;;;;;;;;;0.23;89.49;99796.40;104929;1290;67269;-58
2023/12/10 05:44:30;;;;;;;;;;;;;;;0.25;89.51;99807.27;104925;1287;71295;-57
2023/12/10 05:47:16;;;;;;;;;;;;;;;0.27;89.48;99811.88;104961;1288;61101;-57
2023/12/10 05:50:02;;;;;;;;;;;;;;;0.29;89.47;99810.73;104977;1288;61163;-58
2023/12/10 05:52:49;;;;;;;;;;;;;;;0.31;89.42;99813.45;104909;1287;73172;-60
2023/12/10 05:55:37;;;;;;;;;;;;;;;0.31;89.46;99817.52;104939;1288;69881;-56
2023/12/10 05:58:23;;;;;;;;;;;;;;;0.31;89.40;99814.45;105086;1288;75376;-58
2023/12/10 06:01:09;;;;;;;;;;;;;;;0.32;89.48;99816.34;104946;1288;61079;-57
2023/12/10 06:03:56;;;;;;;;;;;;;;;0.32;89.51;99816.52;104968;1288;61220;-57
2023/12/10 06:06:42;;;;;;;;;;;;;;;0.32;89.44;99824.81;105011;1288;72500;-56
2023/12/10 06:09:28;;;;;;;;;;;;;;;0.30;89.48;99824.79;104971;1291;67205;-57
2023/12/10 06:12:14;;;;;;;;;;;;;;;0.29;89.45;99822.59;104964;1291;71317;-57
2023/12/10 06:15:01;;;;;;;;;;;;;;;0.29;89.51;99819.52;104946;1288;61235;-57
2023/12/10 06:17:47;;;;;;;;;;;;;;;0.29;89.47;99816.98;104940;1287;61496;-58
2023/12/10 06:20:34;;;;;;;;;;;;;;;0.27;89.50;99814.76;104957;1288;73575;-57
2023/12/10 06:23:20;;;;;;;;;;;;;;;0.26;89.49;99813.90;104977;1288;67264;-58
2023/12/10 06:26:06;;;;;;;;;;;;;;;0.25;89.51;99817.95;105008;1287;71289;-57
2023/12/10 06:28:52;;;;;;;;;;;;;;;0.23;89.52;99810.80;104916;1291;61180;-56
2023/12/10 06:31:38;;;;;;;;;;;;;;;0.22;89.62;99811.64;104944;1292;63982;-58
2023/12/10 06:34:24;;;;;;;;;;;;;;;0.20;89.65;99815.85;104988;1288;74693;-58
2023/12/10 06:37:10;;;;;;;;;;;;;;;0.19;89.59;99820.91;104984;1288;69065;-54
2023/12/10 06:39:56;;;;;;;;;;;;;;;0.19;89.67;99815.33;104892;1288;71220;-57
2023/12/10 06:42:43;;;;;;;;;;;;;;;0.21;89.71;99816.53;104947;1288;61233;-58
2023/12/10 06:45:29;;;;;;;;;;;;;;;0.21;89.62;99824.85;104880;1289;61819;-57
2023/12/10 06:48:15;;;;;;;;;;;;;;;0.22;89.68;99825.02;104976;1288;73266;-57
2023/12/10 06:51:02;;;;;;;;;;;;;;;0.21;89.61;99820.44;104972;1291;70129;-58
2023/12/10 06:53:48;;;;;;;;;;;;;;;0.19;89.61;99822.61;104961;1288;71324;-57
2023/12/10 06:56:39;;;;;;;;;;;;;;;0.18;89.69;99825.47;104967;1288;61212;-57
2023/12/10 06:59:25;;;;;;;;;;;;;;;0.17;89.70;99833.27;104939;1288;61785;-57
2023/12/10 07:02:11;;;;;;;;;;;;;;;0.17;89.71;99838.69;104937;1288;79540;-58
2023/12/10 07:04:57;;;;;;;;;;;;;;;0.16;89.78;99834.95;104978;1288;68976;-57
2023/12/10 07:07:44;;;;;;;;;;;;;;;0.17;89.76;99838.35;105071;1287;71254;-58
2023/12/10 07:10:30;;;;;;;;;;;;;;;0.17;89.81;99841.40;104963;1289;61160;-58
2023/12/10 07:13:16;;;;;;;;;;;;;;;0.17;89.89;99848.18;104967;1288;62670;-58
2023/12/10 07:16:02;;;;;;;;;;;;;;;0.17;90.00;99848.16;104976;1290;76006;-57
2023/12/10 07:18:48;;;;;;;;;;;;;;;0.17;89.88;99852.75;105002;1288;68014;-57
2023/12/10 07:21:34;;;;;;;;;;;;;;;0.18;89.92;99861.58;104940;1288;75428;-57
2023/12/10 07:24:21;;;;;;;;;;;;;;;0.18;89.93;99863.27;105003;1288;61104;-57
2023/12/10 07:27:07;;;;;;;;;;;;;;;0.16;89.95;99871.05;106249;1288;58981;-58
2023/12/10 07:29:53;;;;;;;;;;;;;;;0.19;89.94;99871.08;106204;1290;73158;-58
2023/12/10 07:32:39;;;;;;;;;;;;;;;0.20;90.02;99872.45;106220;1288;68394;-58
2023/12/10 07:35:25;;;;;;;;;;;;;;;0.20;89.98;99875.16;106211;1288;70901;-58
2023/12/10 07:38:11;;;;;;;;;;;;;;;0.21;89.90;99871.79;106210;1288;59115;-59
2023/12/10 07:40:57;;;;;;;;;;;;;;;0.21;89.92;99872.98;105259;1288;59694;-55
2023/12/10 07:43:43;;;;;;;;;;;;;;;0.22;89.92;99878.74;104919;1288;75557;-57
2023/12/10 07:46:29;;;;;;;;;;;;;;;0.23;89.88;99879.45;104988;1292;67994;-57
2023/12/10 07:49:16;;;;;;;;;;;;;;;0.24;89.97;99881.83;105003;1291;72804;-58
2023/12/10 07:52:03;;;;;;;;;;;;;;;0.26;90.05;99880.49;104863;1289;61327;-57
2023/12/10 07:54:49;;;;;;;;;;;;;;;0.27;90.06;99877.46;104893;1288;61134;-55
2023/12/10 07:57:35;;;;;;;;;;;;;;;0.28;90.03;99876.96;104923;1291;73149;-58
2023/12/10 08:00:21;;;;;;;;;;;;;;;0.30;90.15;99882.60;104961;1288;67245;-58
2023/12/10 08:03:07;;;;;;;;;;;;;;;0.33;90.14;99881.44;104927;1288;73976;-58
2023/12/10 08:05:53;;;;;;;;;;;;;;;0.33;90.14;99885.00;104929;1288;61255;-58
2023/12/10 08:08:40;;;;;;;;;;;;;;;0.34;90.06;99892.65;104955;1288;61138;-56
2023/12/10 08:11:26;;;;;;;;;;;;;;;0.35;90.20;99894.19;104820;1291;73198;-58
2023/12/10 08:14:12;;;;;;;;;;;;;;;0.36;90.15;99896.06;104828;1288;67167;-57
2023/12/10 08:16:59;;;;;;;;;;;;;;;0.38;90.12;99892.02;104856;1288;73979;-58
2023/12/10 08:19:45;;;;;;;;;;;;;;;0.40;90.16;99899.17;104853;1288;61092;-58
2023/12/10 08:22:31;;;;;;;;;;;;;;;0.43;90.16;99897.51;104930;1288;61158;-58
2023/12/10 08:25:18;;;;;;;;;;;;;;;0.45;90.23;99899.07;104906;1288;73177;-58
2023/12/10 08:28:04;;;;;;;;;;;;;;;0.47;90.18;99900.44;104918;1291;69940;-58
2023/12/10 08:30:50;;;;;;;;;;;;;;;0.48;90.14;99909.79;104909;1288;74150;-57
2023/12/10 08:33:36;;;;;;;;;;;;;;;0.50;90.17;99909.81;104880;1290;61173;-58
2023/12/10 08:36:22;;;;;;;;;;;;;;;0.54;90.21;99907.46;104952;1288;61016;-57
2023/12/10 08:39:08;;;;;;;;;;;;;;;0.57;90.23;99903.95;104890;1291;73183;-57
2023/12/10 08:41:55;;;;;;;;;;;;;;;0.60;90.27;99904.33;104965;1288;69020;-59
2023/12/10 08:44:41;;;;;;;;;;;;;;;0.63;90.24;99912.50;104932;1288;71276;-58
2023/12/10 08:47:27;;;;;;;;;;;;;;;0.67;90.29;99910.34;104954;1289;61130;-58
2023/12/10 08:50:13;;;;;;;;;;;;;;;0.71;90.34;99912.60;104978;1288;59310;-58
2023/12/10 08:52:59;;;;;;;;;;;;;;;0.76;90.27;99906.73;104933;1288;77374;-58
2023/12/10 08:55:46;;;;;;;;;;;;;;;0.83;90.34;99904.44;104937;1289;67309;-58
2023/12/10 08:58:33;;;;;;;;;;;;;;;0.90;90.28;99905.37;104929;1292;71686;-60
2023/12/10 09:01:19;;;;;;;;;;;;;;;0.96;90.29;99909.17;104949;1290;61299;-58
2023/12/10 09:04:05;;;;;;;;;;;;;;;1.00;90.27;99916.69;104958;1287;61164;-58
2023/12/10 09:06:51;;;;;;;;;;;;;;;1.01;90.19;99913.98;104914;1288;73176;-58
2023/12/10 09:09:37;;;;;;;;;;;;;;;1.02;90.24;99911.95;105009;1288;67343;-58
2023/12/10 09:12:23;;;;;;;;;;;;;;;1.03;90.40;99911.97;104952;1288;75229;-58
2023/12/10 09:15:09;;;;;;;;;;;;;;;1.05;90.30;99913.98;104899;1288;61608;-58
2023/12/10 09:17:56;;;;;;;;;;;;;;;1.05;90.28;99915.35;104933;1288;61420;-57
2023/12/10 09:20:42;;;;;;;;;;;;;;;1.05;90.36;99915.69;104936;1288;76007;-58
2023/12/10 09:23:28;;;;;;;;;;;;;;;1.05;90.40;99914.50;104951;1291;70066;-58
2023/12/10 09:26:14;;;;;;;;;;;;;;;1.10;90.38;99909.97;104922;1290;71680;-58
2023/12/10 09:29:00;;;;;;;;;;;;;;;1.13;90.47;99902.55;104963;1288;61192;-57
2023/12/10 09:31:46;;;;;;;;;;;;;;;1.16;90.36;99910.55;105098;1288;59103;-58
2023/12/10 09:34:33;;;;;;;;;;;;;;;1.19;90.40;99922.63;104942;1289;72226;-58
2023/12/10 09:37:19;;;;;;;;;;;;;;;1.20;90.44;99926.04;106246;1288;67539;-59
2023/12/10 09:40:05;;;;;;;;;;;;;;;1.21;90.43;99918.23;106229;1289;71094;-59
2023/12/10 09:42:51;;;;;;;;;;;;;;;1.21;90.44;99917.55;106222;1288;59298;-59
2023/12/10 09:45:37;;;;;;;;;;;;;;;1.21;90.36;99912.98;106265;1288;59345;-59
2023/12/10 09:48:23;;;;;;;;;;;;;;;1.21;90.42;99909.77;106238;1287;74344;-59
2023/12/10 09:51:08;;;;;;;;;;;;;;;1.22;90.33;99911.46;106233;1287;66995;-59
2023/12/10 09:53:54;;;;;;;;;;;;;;;1.22;90.43;99912.31;106246;1288;71300;-59
2023/12/10 09:56:40;;;;;;;;;;;;;;;1.24;90.54;99913.70;106218;1288;59444;-59
2023/12/10 09:59:26;;;;;;;;;;;;;;;1.26;90.53;99915.24;106212;1288;59985;-58
2023/12/10 10:02:12;;;;;;;;;;;;;;;1.27;90.49;99917.79;106231;1288;74820;-59
2023/12/10 10:04:58;;;;;;;;;;;;;;;1.25;90.52;99908.10;106195;1289;69114;-59
2023/12/10 10:07:43;;;;;;;;;;;;;;;1.27;90.61;99897.94;106207;1288;73226;-59
2023/12/10 10:10:29;;;;;;;;;;;;;;;1.32;90.67;99889.83;106261;1288;59076;-59
2023/12/10 10:13:15;;;;;;;;;;;;;;;1.38;90.67;99898.04;106137;1288;60433;-59
2023/12/10 10:16:08;;;;;;;;;;;;;;;1.39;90.65;99897.03;106219;1288;73090;-59
2023/12/10 10:18:53;;;;;;;;;;;;;;;1.40;90.64;99900.09;106214;1288;67461;-59
2023/12/10 10:21:40;;;;;;;;;;;;;;;1.40;90.59;99896.52;106129;1291;71261;-59
2023/12/10 10:24:26;;;;;;;;;;;;;;;1.40;90.63;99898.91;106235;1288;59204;-59
2023/12/10 10:27:12;;;;;;;;;;;;;;;1.41;90.66;99900.78;106278;1287;60047;-59
2023/12/10 10:29:58;;;;;;;;;;;;;;;1.41;90.76;99899.09;106222;1289;73541;-59
2023/12/10 10:32:46;;;;;;;;;;;;;;;1.43;90.75;99900.98;106274;1288;67491;-59
2023/12/10 10:35:32;;;;;;;;;;;;;;;1.45;90.78;99904.23;106166;1290;72273;-59
2023/12/10 10:38:20;;;;;;;;;;;;;;;1.45;90.79;99912.21;106213;1288;59829;-59
2023/12/10 10:41:07;;;;;;;;;;;;;;;1.44;90.81;99918.31;106214;1288;58740;-59
2023/12/10 10:43:56;;;;;;;;;;;;;;;1.43;90.78;99919.48;106264;1288;74520;-59
2023/12/10 10:46:42;;;;;;;;;;;;;;;1.40;90.82;99921.16;106269;1288;70075;-59
2023/12/10 10:49:28;;;;;;;;;;;;;;;1.39;90.84;99920.46;106210;1288;72078;-58
2023/12/10 10:52:20;;;;;;;;;;;;;;;1.37;90.83;99916.37;106155;1288;58546;-58
2023/12/10 10:55:06;;;;;;;;;;;;;;;1.36;90.89;99913.81;106222;1288;58962;-59
2023/12/10 10:57:54;;;;;;;;;;;;;;;1.37;90.86;99914.49;106246;1288;73392;-59
2023/12/10 11:00:40;;;;;;;;;;;;;;;1.38;90.91;99913.33;106211;1289;68662;-60
2023/12/10 11:03:26;;;;;;;;;;;;;;;1.40;90.88;99910.12;106115;1288;73077;-57
2023/12/10 11:06:15;;;;;;;;;;;;;;;1.41;90.90;99908.94;105894;1288;298223;-58
2023/12/10 11:09:01;;;;;;;;;;;;;;;1.43;90.92;99909.98;105682;1289;59313;-58
2023/12/10 11:11:48;;;;;;;;;;;;;;;1.47;90.98;99911.03;104943;1288;77426;-58
2023/12/10 11:14:34;;;;;;;;;;;;;;;1.49;90.96;99915.64;104940;1291;68056;-58
2023/12/10 11:17:20;;;;;;;;;;;;;;;1.50;90.95;99925.67;104938;1288;74012;-60
2023/12/10 11:20:26;;;;;;;;;;;;;;;1.50;90.96;99924.14;104914;1292;61213;-60
2023/12/10 11:23:19;;;;;;;;;;;;;;;1.49;90.96;99926.51;105346;1288;61639;-56
2023/12/10 11:26:05;;;;;;;;;;;;;;;1.49;91.03;99925.66;104902;1292;73551;-58
2023/12/10 11:28:52;;;;;;;;;;;;;;;1.50;90.99;99925.33;104935;1292;67235;-58
2023/12/10 11:31:38;;;;;;;;;;;;;;;1.49;91.03;99923.45;104946;1289;71182;-59
2023/12/10 11:34:24;;;;;;;;;;;;;;;1.51;91.10;99923.47;104978;1292;61207;-58
2023/12/10 11:37:10;;;;;;;;;;;;;;;1.50;91.10;99919.39;105026;1288;61131;-55
2023/12/10 11:39:56;;;;;;;;;;;;;;;1.48;91.08;99919.88;104925;1288;73253;-55
2023/12/10 11:42:42;;;;;;;;;;;;;;;1.46;91.03;99921.39;104923;1288;67256;-58
2023/12/10 11:45:28;;;;;;;;;;;;;;;1.44;91.09;99921.70;104958;1288;71210;-57
2023/12/10 11:48:17;;;;;;;;;;;;;;;1.46;91.20;99924.11;104824;1289;61359;-57
2023/12/10 11:51:03;;;;;;;;;;;;;;;1.49;91.16;99925.49;104853;1288;61053;-55
2023/12/10 11:53:50;;;;;;;;;;;;;;;1.52;91.15;99929.09;104909;1288;75029;-57
2023/12/10 11:56:36;;;;;;;;;;;;;;;1.53;91.22;99930.80;104852;1290;67185;-57
2023/12/10 11:59:22;;;;;;;;;;;;;;;1.53;91.22;99924.85;104735;1289;72130;-57
2023/12/10 12:02:08;;;;;;;;;;;;;;;1.56;91.26;99925.38;104752;1288;62107;-58
2023/12/10 12:04:54;;;;;;;;;;;;;;;1.59;91.31;99926.58;104861;1288;62143;-59
2023/12/10 12:07:42;;;;;;;;;;;;;;;1.60;91.22;99928.79;104752;1288;73268;-58
2023/12/10 12:10:37;;;;;;;;;;;;;;;1.58;91.19;99927.25;104751;1288;68161;-58
2023/12/10 12:13:27;;;;;;;;;;;;;;;1.57;91.31;99929.77;104817;1292;71358;-57
2023/12/10 12:16:15;;;;;;;;;;;;;;;1.55;91.31;99929.45;106139;1288;59168;-57
2023/12/10 12:19:00;;;;;;;;;;;;;;;1.53;91.26;99930.29;106148;1291;58844;-58
2023/12/10 12:21:46;;;;;;;;;;;;;;;1.51;91.18;99927.38;106127;1288;72561;-56
2023/12/10 12:24:32;;;;;;;;;;;;;;;1.50;91.31;99920.91;106088;1288;69193;-57
2023/12/10 12:27:18;;;;;;;;;;;;;;;1.49;91.32;99915.13;106076;1291;71356;-57
2023/12/10 12:30:05;;;;;;;;;;;;;;;1.47;91.39;99916.30;106172;1291;59123;-56
2023/12/10 12:32:51;;;;;;;;;;;;;;;1.47;91.29;99920.20;106103;1288;59551;-56
2023/12/10 12:35:37;;;;;;;;;;;;;;;1.48;91.30;99919.37;106202;1288;74216;-59
2023/12/10 12:38:23;;;;;;;;;;;;;;;1.49;91.25;99920.05;106093;1288;67932;-57
2023/12/10 12:41:08;;;;;;;;;;;;;;;1.50;91.24;99926.18;106075;1290;72582;-57
2023/12/10 12:43:54;;;;;;;;;;;;;;;1.51;91.26;99923.30;106209;1288;59484;-56
2023/12/10 12:46:41;;;;;;;;;;;;;;;1.52;91.31;99925.52;106194;1286;60046;-56
2023/12/10 12:49:26;;;;;;;;;;;;;;;1.53;91.29;99924.00;106054;1288;73432;-55
2023/12/10 12:52:14;;;;;;;;;;;;;;;1.53;91.26;99927.23;106179;1288;68428;-56
2023/12/10 12:55:01;;;;;;;;;;;;;;;1.51;91.48;99937.73;106142;1288;70747;-57
2023/12/10 12:57:47;;;;;;;;;;;;;;;1.49;91.38;99937.55;106205;1288;59048;-56
2023/12/10 13:00:34;;;;;;;;;;;;;;;1.49;91.29;99934.66;106188;1288;59879;-56
2023/12/10 13:03:20;;;;;;;;;;;;;;;1.48;91.33;99933.29;106184;1288;74370;-56
2023/12/10 13:06:07;;;;;;;;;;;;;;;1.49;91.39;99931.77;106207;1288;67350;-58
2023/12/10 13:08:52;;;;;;;;;;;;;;;1.50;91.45;99929.74;106088;1288;71376;-56
2023/12/10 13:11:39;;;;;;;;;;;;;;;1.50;91.38;99928.21;106131;1288;59099;-56
2023/12/10 13:14:25;;;;;;;;;;;;;;;1.50;91.56;99926.69;106171;1291;59527;-57
2023/12/10 13:17:11;;;;;;;;;;;;;;;1.49;91.46;99928.04;106199;1288;74551;-56
2023/12/10 13:19:57;;;;;;;;;;;;;;;1.50;91.45;99929.57;106219;1288;68072;-57
2023/12/10 13:22:43;;;;;;;;;;;;;;;1.51;91.44;99929.42;106137;1288;71344;-55
2023/12/10 13:25:29;;;;;;;;;;;;;;;1.53;91.46;99927.56;106196;1288;58794;-56
2023/12/10 13:28:15;;;;;;;;;;;;;;;1.54;91.51;99928.09;101552;1293;5003663;-56
2023/12/10 13:31:01;;;;;;;;;;;;;;;1.56;91.54;99931.50;106104;1288;79491;-58
2023/12/10 13:33:46;;;;;;;;;;;;;;;1.57;91.56;99929.96;106163;1291;67421;-56
2023/12/10 13:36:33;;;;;;;;;;;;;;;1.57;91.42;99932.67;106158;1292;72204;-54
2023/12/10 13:39:20;;;;;;;;;;;;;;;1.57;91.41;99934.88;106213;1288;59280;-55
2023/12/10 13:42:06;;;;;;;;;;;;;;;1.58;91.60;99931.15;106177;1292;59047;-55
2023/12/10 13:44:52;;;;;;;;;;;;;;;1.59;91.61;99927.42;106206;1288;73989;-56
2023/12/10 13:47:38;;;;;;;;;;;;;;;1.61;91.65;99930.33;106205;1289;67319;-56
2023/12/10 13:50:24;;;;;;;;;;;;;;;1.61;91.54;99927.77;106177;1292;71217;-55
2023/12/10 13:53:10;;;;;;;;;;;;;;;1.59;91.65;99926.91;106169;1288;59467;-56
2023/12/10 13:55:56;;;;;;;;;;;;;;;1.58;91.64;99930.13;106162;1288;58917;-56
2023/12/10 13:58:42;;;;;;;;;;;;;;;1.57;92.07;99928.60;106031;1293;73812;-55
2023/12/10 14:01:28;;;;;;;;;;;;;;;1.55;91.87;99927.08;106089;1288;67401;-55
2023/12/10 14:04:14;;;;;;;;;;;;;;;1.54;91.78;99924.35;105961;1288;71238;-55
2023/12/10 14:07:01;;;;;;;;;;;;;;;1.53;91.76;99924.67;106132;1288;59197;-56
2023/12/10 14:09:47;;;;;;;;;;;;;;;1.53;91.66;99924.67;106063;1288;59452;-59
2023/12/10 14:12:32;;;;;;;;;;;;;;;1.53;91.72;99926.89;106150;1291;74625;-56
2023/12/10 14:15:18;;;;;;;;;;;;;;;1.51;91.80;99926.88;106181;1290;68441;-57
2023/12/10 14:18:04;;;;;;;;;;;;;;;1.51;91.72;99928.05;106083;1288;71389;-57
2023/12/10 14:20:50;;;;;;;;;;;;;;;1.52;91.78;99923.98;106207;1289;59006;-57
2023/12/10 14:23:36;;;;;;;;;;;;;;;1.53;91.78;99923.33;106222;1287;59302;-57